sensor_id;sensor_type;location;lat;lon;timestamp;temperature;humidity
23102;DHT22;11720;51.214;22.574;2023-03-01T00:01:30;-2.80;99.90
23102;DHT22;11720;51.214;22.574;2023-03-01T00:03:57;-2.80;99.90
23102;DHT22;11720;51.214;22.574;2023-03-01T00:06:23;-2.30;99.90
23102;DHT22;11720;51.214;22.574;2023-03-01T00:08:49;-1.30;99.90
23102;DHT22;11720;51.214;22.574;2023-03-01T00:13:43;-2.80;99.90
23102;DHT22;11720;51.214;22.574;2023-03-01T00:16:13;-2.80;99.90
23102;DHT22;11720;51.214;22.574;2023-03-01T00:18:39;-2.80;99.90
23102;DHT22;11720;51.214;22.574;2023-03-01T00:21:05;-2.30;99.90
23102;DHT22;11720;51.214;22.574;2023-03-01T00:23:33;-2.50;99.90
23102;DHT22;11720;51.214;22.574;2023-03-01T00:25:59;-2.40;99.90
23102;DHT22;11720;51.214;22.574;2023-03-01T00:28:24;-2.00;99.90
23102;DHT22;11720;51.214;22.574;2023-03-01T00:30:50;-2.30;99.90
23102;DHT22;11720;51.214;22.574;2023-03-01T00:33:16;-2.60;99.90
23102;DHT22;11720;51.214;22.574;2023-03-01T00:35:41;-2.60;99.90
23102;DHT22;11720;51.214;22.574;2023-03-01T00:38:07;-2.60;99.90
23102;DHT22;11720;51.214;22.574;2023-03-01T00:40:34;-1.50;99.90
23102;DHT22;11720;51.214;22.574;2023-03-01T00:43:01;-1.60;99.90
23102;DHT22;11720;51.214;22.574;2023-03-01T00:45:27;-2.30;99.90
23102;DHT22;11720;51.214;22.574;2023-03-01T00:47:53;-2.50;99.90
23102;DHT22;11720;51.214;22.574;2023-03-01T00:50:20;-2.30;99.90
23102;DHT22;11720;51.214;22.574;2023-03-01T00:52:46;-2.50;99.90
23102;DHT22;11720;51.214;22.574;2023-03-01T00:55:12;-1.90;99.90
23102;DHT22;11720;51.214;22.574;2023-03-01T00:57:38;-2.20;99.90
23102;DHT22;11720;51.214;22.574;2023-03-01T01:00:07;-2.40;99.90
23102;DHT22;11720;51.214;22.574;2023-03-01T01:02:35;-2.40;99.90
23102;DHT22;11720;51.214;22.574;2023-03-01T01:05:00;-1.80;99.90
23102;DHT22;11720;51.214;22.574;2023-03-01T01:07:26;-2.20;99.90
23102;DHT22;11720;51.214;22.574;2023-03-01T01:09:52;-2.20;99.90
23102;DHT22;11720;51.214;22.574;2023-03-01T01:12:17;-1.70;99.90
23102;DHT22;11720;51.214;22.574;2023-03-01T01:14:43;-2.20;99.90
23102;DHT22;11720;51.214;22.574;2023-03-01T01:17:09;-2.10;99.90
23102;DHT22;11720;51.214;22.574;2023-03-01T01:19:35;-2.30;99.90
23102;DHT22;11720;51.214;22.574;2023-03-01T01:22:01;-1.90;99.90
23102;DHT22;11720;51.214;22.574;2023-03-01T01:24:26;-2.50;99.90
23102;DHT22;11720;51.214;22.574;2023-03-01T01:26:52;-2.70;99.90
23102;DHT22;11720;51.214;22.574;2023-03-01T01:29:18;-1.90;99.90
23102;DHT22;11720;51.214;22.574;2023-03-01T01:31:44;-2.60;99.90
23102;DHT22;11720;51.214;22.574;2023-03-01T01:34:14;-1.60;99.90
23102;DHT22;11720;51.214;22.574;2023-03-01T01:36:40;-2.80;99.90
23102;DHT22;11720;51.214;22.574;2023-03-01T01:39:06;-2.70;99.90
23102;DHT22;11720;51.214;22.574;2023-03-01T01:41:33;-2.70;99.90
23102;DHT22;11720;51.214;22.574;2023-03-01T01:44:26;-2.80;99.90
23102;DHT22;11720;51.214;22.574;2023-03-01T01:47:01;-2.80;99.90
23102;DHT22;11720;51.214;22.574;2023-03-01T01:49:38;-2.80;99.90
23102;DHT22;11720;51.214;22.574;2023-03-01T01:52:26;-2.90;99.90
23102;DHT22;11720;51.214;22.574;2023-03-01T01:55:03;-2.90;99.90
23102;DHT22;11720;51.214;22.574;2023-03-01T01:57:38;-2.40;99.90
23102;DHT22;11720;51.214;22.574;2023-03-01T02:00:08;-3.00;99.90
23102;DHT22;11720;51.214;22.574;2023-03-01T02:02:35;-3.10;99.90
23102;DHT22;11720;51.214;22.574;2023-03-01T02:05:26;-3.10;99.90
23102;DHT22;11720;51.214;22.574;2023-03-01T02:07:55;-2.90;99.90
23102;DHT22;11720;51.214;22.574;2023-03-01T02:10:23;-3.20;99.90
23102;DHT22;11720;51.214;22.574;2023-03-01T02:12:51;-3.40;99.90
23102;DHT22;11720;51.214;22.574;2023-03-01T02:15:17;-3.50;99.90
23102;DHT22;11720;51.214;22.574;2023-03-01T02:17:43;-3.50;99.90
23102;DHT22;11720;51.214;22.574;2023-03-01T02:23:12;-3.50;99.90
23102;DHT22;11720;51.214;22.574;2023-03-01T02:26:25;-3.50;99.90
23102;DHT22;11720;51.214;22.574;2023-03-01T02:28:43;-3.30;99.90
23102;DHT22;11720;51.214;22.574;2023-03-01T02:31:11;-2.00;99.90
23102;DHT22;11720;51.214;22.574;2023-03-01T02:33:58;-3.20;99.90
23102;DHT22;11720;51.214;22.574;2023-03-01T02:36:29;-3.20;99.90
23102;DHT22;11720;51.214;22.574;2023-03-01T02:39:01;-3.20;99.90
23102;DHT22;11720;51.214;22.574;2023-03-01T02:41:30;-1.70;99.90
23102;DHT22;11720;51.214;22.574;2023-03-01T02:43:56;-3.10;99.90
23102;DHT22;11720;51.214;22.574;2023-03-01T02:46:24;-3.10;99.90
23102;DHT22;11720;51.214;22.574;2023-03-01T02:48:55;-3.20;99.90
23102;DHT22;11720;51.214;22.574;2023-03-01T02:56:30;-3.20;99.90
23102;DHT22;11720;51.214;22.574;2023-03-01T02:58:56;-3.20;99.90
23102;DHT22;11720;51.214;22.574;2023-03-01T03:01:26;-3.10;99.90
23102;DHT22;11720;51.214;22.574;2023-03-01T03:04:04;-3.10;99.90
23102;DHT22;11720;51.214;22.574;2023-03-01T03:06:30;-2.30;99.90
23102;DHT22;11720;51.214;22.574;2023-03-01T03:08:55;-2.00;99.90
23102;DHT22;11720;51.214;22.574;2023-03-01T03:11:21;-3.00;99.90
23102;DHT22;11720;51.214;22.574;2023-03-01T03:13:47;-2.80;99.90
23102;DHT22;11720;51.214;22.574;2023-03-01T03:16:14;-2.90;99.90
23102;DHT22;11720;51.214;22.574;2023-03-01T03:18:40;-1.80;99.90
23102;DHT22;11720;51.214;22.574;2023-03-01T03:21:09;-3.10;99.90
23102;DHT22;11720;51.214;22.574;2023-03-01T03:23:36;-2.10;99.90
23102;DHT22;11720;51.214;22.574;2023-03-01T03:26:03;-2.90;99.90
23102;DHT22;11720;51.214;22.574;2023-03-01T03:28:30;-3.20;99.90
23102;DHT22;11720;51.214;22.574;2023-03-01T03:30:56;-3.20;99.90
23102;DHT22;11720;51.214;22.574;2023-03-01T03:33:22;-3.20;99.90
23102;DHT22;11720;51.214;22.574;2023-03-01T03:35:49;-3.30;99.90
23102;DHT22;11720;51.214;22.574;2023-03-01T03:38:18;-3.20;99.90
23102;DHT22;11720;51.214;22.574;2023-03-01T03:40:47;-2.50;99.90
23102;DHT22;11720;51.214;22.574;2023-03-01T03:45:46;-3.40;99.90
23102;DHT22;11720;51.214;22.574;2023-03-01T03:48:13;-2.90;99.90
23102;DHT22;11720;51.214;22.574;2023-03-01T03:50:39;-2.60;99.90
23102;DHT22;11720;51.214;22.574;2023-03-01T03:53:10;-2.10;99.90
23102;DHT22;11720;51.214;22.574;2023-03-01T03:55:36;-3.30;99.90
23102;DHT22;11720;51.214;22.574;2023-03-01T03:58:05;-3.30;99.90
23102;DHT22;11720;51.214;22.574;2023-03-01T04:00:37;-3.30;99.90
23102;DHT22;11720;51.214;22.574;2023-03-01T04:03:04;-3.20;99.90
23102;DHT22;11720;51.214;22.574;2023-03-01T04:05:30;-3.20;99.90
23102;DHT22;11720;51.214;22.574;2023-03-01T04:07:56;-1.40;99.90
23102;DHT22;11720;51.214;22.574;2023-03-01T04:10:34;-1.70;99.90
23102;DHT22;11720;51.214;22.574;2023-03-01T04:13:00;-3.30;99.90
23102;DHT22;11720;51.214;22.574;2023-03-01T04:15:26;-2.90;99.90
23102;DHT22;11720;51.214;22.574;2023-03-01T04:17:53;-3.30;99.90
23102;DHT22;11720;51.214;22.574;2023-03-01T04:20:22;-3.30;99.90
23102;DHT22;11720;51.214;22.574;2023-03-01T04:28:11;-3.30;99.90
23102;DHT22;11720;51.214;22.574;2023-03-01T04:30:37;-3.30;99.90
23102;DHT22;11720;51.214;22.574;2023-03-01T04:33:06;-3.20;99.90
23102;DHT22;11720;51.214;22.574;2023-03-01T04:35:32;-3.20;99.90
23102;DHT22;11720;51.214;22.574;2023-03-01T04:37:58;-2.30;99.90
23102;DHT22;11720;51.214;22.574;2023-03-01T04:40:24;-3.20;99.90
23102;DHT22;11720;51.214;22.574;2023-03-01T04:42:50;-3.10;99.90
23102;DHT22;11720;51.214;22.574;2023-03-01T04:45:16;-2.10;99.90
23102;DHT22;11720;51.214;22.574;2023-03-01T04:47:43;-3.20;99.90
23102;DHT22;11720;51.214;22.574;2023-03-01T04:50:11;-3.10;99.90
23102;DHT22;11720;51.214;22.574;2023-03-01T04:52:38;-3.10;99.90
23102;DHT22;11720;51.214;22.574;2023-03-01T04:55:04;-3.10;99.90
23102;DHT22;11720;51.214;22.574;2023-03-01T04:57:30;-3.20;99.90
23102;DHT22;11720;51.214;22.574;2023-03-01T04:59:56;-3.20;99.90
23102;DHT22;11720;51.214;22.574;2023-03-01T05:02:22;-3.10;99.90
23102;DHT22;11720;51.214;22.574;2023-03-01T05:04:48;-3.20;99.90
23102;DHT22;11720;51.214;22.574;2023-03-01T05:07:13;-3.30;99.90
23102;DHT22;11720;51.214;22.574;2023-03-01T05:09:48;-3.20;99.90
23102;DHT22;11720;51.214;22.574;2023-03-01T05:12:14;-2.30;99.90
23102;DHT22;11720;51.214;22.574;2023-03-01T05:14:40;-3.10;99.90
23102;DHT22;11720;51.214;22.574;2023-03-01T05:17:06;-3.00;99.90
23102;DHT22;11720;51.214;22.574;2023-03-01T05:19:33;-3.10;99.90
23102;DHT22;11720;51.214;22.574;2023-03-01T05:21:59;-3.20;99.90
23102;DHT22;11720;51.214;22.574;2023-03-01T05:24:28;-3.20;99.90
23102;DHT22;11720;51.214;22.574;2023-03-01T05:26:54;-2.70;99.90
23102;DHT22;11720;51.214;22.574;2023-03-01T05:29:21;-3.20;99.90
23102;DHT22;11720;51.214;22.574;2023-03-01T05:32:00;-2.20;99.90
23102;DHT22;11720;51.214;22.574;2023-03-01T05:34:32;-2.30;99.90
23102;DHT22;11720;51.214;22.574;2023-03-01T05:36:58;-2.70;99.90
23102;DHT22;11720;51.214;22.574;2023-03-01T05:39:25;-3.20;99.90
23102;DHT22;11720;51.214;22.574;2023-03-01T05:41:59;-3.10;99.90
23102;DHT22;11720;51.214;22.574;2023-03-01T05:44:27;-3.10;99.90
23102;DHT22;11720;51.214;22.574;2023-03-01T05:46:53;-3.10;99.90
23102;DHT22;11720;51.214;22.574;2023-03-01T05:49:20;-1.00;99.90
23102;DHT22;11720;51.214;22.574;2023-03-01T05:51:50;-1.90;99.90
23102;DHT22;11720;51.214;22.574;2023-03-01T05:54:16;-2.90;99.90
23102;DHT22;11720;51.214;22.574;2023-03-01T05:56:43;-2.90;99.90
23102;DHT22;11720;51.214;22.574;2023-03-01T05:59:08;-2.80;99.90
23102;DHT22;11720;51.214;22.574;2023-03-01T06:01:35;-2.80;99.90
23102;DHT22;11720;51.214;22.574;2023-03-01T06:04:01;-2.70;99.90
23102;DHT22;11720;51.214;22.574;2023-03-01T06:06:27;-2.70;99.90
23102;DHT22;11720;51.214;22.574;2023-03-01T06:08:53;-2.60;99.90
23102;DHT22;11720;51.214;22.574;2023-03-01T06:11:20;-1.60;99.90
23102;DHT22;11720;51.214;22.574;2023-03-01T06:13:46;-2.40;99.90
23102;DHT22;11720;51.214;22.574;2023-03-01T06:16:12;-2.10;99.90
23102;DHT22;11720;51.214;22.574;2023-03-01T06:18:38;-2.30;99.90
23102;DHT22;11720;51.214;22.574;2023-03-01T06:21:05;-2.10;99.90
23102;DHT22;11720;51.214;22.574;2023-03-01T06:23:32;-2.00;99.90
23102;DHT22;11720;51.214;22.574;2023-03-01T06:25:58;-1.00;99.90
23102;DHT22;11720;51.214;22.574;2023-03-01T06:28:24;-1.80;99.90
23102;DHT22;11720;51.214;22.574;2023-03-01T06:30:50;-1.70;99.90
23102;DHT22;11720;51.214;22.574;2023-03-01T06:33:17;-1.60;99.90
23102;DHT22;11720;51.214;22.574;2023-03-01T06:35:46;-1.60;99.90
23102;DHT22;11720;51.214;22.574;2023-03-01T06:38:12;-0.50;99.90
23102;DHT22;11720;51.214;22.574;2023-03-01T06:40:40;-1.40;99.90
23102;DHT22;11720;51.214;22.574;2023-03-01T06:43:06;-1.30;99.90
23102;DHT22;11720;51.214;22.574;2023-03-01T06:45:33;-1.10;99.90
23102;DHT22;11720;51.214;22.574;2023-03-01T06:48:03;-1.00;99.90
23102;DHT22;11720;51.214;22.574;2023-03-01T06:50:29;-0.90;99.90
23102;DHT22;11720;51.214;22.574;2023-03-01T06:52:56;-0.70;99.90
23102;DHT22;11720;51.214;22.574;2023-03-01T06:55:22;0.20;99.90
23102;DHT22;11720;51.214;22.574;2023-03-01T06:57:48;-0.70;99.90
23102;DHT22;11720;51.214;22.574;2023-03-01T07:00:14;-0.70;99.90
23102;DHT22;11720;51.214;22.574;2023-03-01T07:02:40;-0.60;99.90
23102;DHT22;11720;51.214;22.574;2023-03-01T07:05:07;-0.60;99.90
23102;DHT22;11720;51.214;22.574;2023-03-01T07:07:32;-0.50;99.90
23102;DHT22;11720;51.214;22.574;2023-03-01T07:09:58;-0.20;99.90
23102;DHT22;11720;51.214;22.574;2023-03-01T07:12:24;-0.40;99.90
23102;DHT22;11720;51.214;22.574;2023-03-01T07:14:49;-0.30;99.90
23102;DHT22;11720;51.214;22.574;2023-03-01T07:17:16;-0.20;99.90
23102;DHT22;11720;51.214;22.574;2023-03-01T07:19:42;0.00;99.90
23102;DHT22;11720;51.214;22.574;2023-03-01T07:22:07;0.00;99.90
23102;DHT22;11720;51.214;22.574;2023-03-01T07:24:34;0.20;99.90
23102;DHT22;11720;51.214;22.574;2023-03-01T07:27:00;0.20;99.90
23102;DHT22;11720;51.214;22.574;2023-03-01T07:29:26;0.30;99.90
23102;DHT22;11720;51.214;22.574;2023-03-01T07:31:51;0.30;99.90
23102;DHT22;11720;51.214;22.574;2023-03-01T07:34:17;0.40;99.90
23102;DHT22;11720;51.214;22.574;2023-03-01T07:36:42;0.50;99.90
23102;DHT22;11720;51.214;22.574;2023-03-01T07:39:11;0.60;99.90
23102;DHT22;11720;51.214;22.574;2023-03-01T07:41:36;0.60;99.90
23102;DHT22;11720;51.214;22.574;2023-03-01T07:44:02;0.60;99.90
23102;DHT22;11720;51.214;22.574;2023-03-01T07:46:28;0.70;99.90
23102;DHT22;11720;51.214;22.574;2023-03-01T07:48:54;0.80;99.90
23102;DHT22;11720;51.214;22.574;2023-03-01T07:51:19;0.80;99.90
23102;DHT22;11720;51.214;22.574;2023-03-01T07:53:48;0.90;99.90
23102;DHT22;11720;51.214;22.574;2023-03-01T07:56:15;1.00;99.90
23102;DHT22;11720;51.214;22.574;2023-03-01T07:58:43;1.00;99.90
23102;DHT22;11720;51.214;22.574;2023-03-01T08:01:15;1.10;99.90
23102;DHT22;11720;51.214;22.574;2023-03-01T08:03:41;1.20;99.90
23102;DHT22;11720;51.214;22.574;2023-03-01T08:06:10;1.30;99.90
23102;DHT22;11720;51.214;22.574;2023-03-01T08:08:36;1.30;99.90
23102;DHT22;11720;51.214;22.574;2023-03-01T08:11:04;1.30;99.90
23102;DHT22;11720;51.214;22.574;2023-03-01T08:13:30;1.30;99.90
23102;DHT22;11720;51.214;22.574;2023-03-01T08:16:11;1.40;99.90
23102;DHT22;11720;51.214;22.574;2023-03-01T08:18:37;1.40;99.90
23102;DHT22;11720;51.214;22.574;2023-03-01T08:21:08;1.40;99.90
23102;DHT22;11720;51.214;22.574;2023-03-01T08:23:34;1.50;99.90
23102;DHT22;11720;51.214;22.574;2023-03-01T08:26:07;1.50;99.90
23102;DHT22;11720;51.214;22.574;2023-03-01T08:28:34;1.60;99.90
23102;DHT22;11720;51.214;22.574;2023-03-01T08:31:00;1.70;99.90
23102;DHT22;11720;51.214;22.574;2023-03-01T08:33:25;1.60;99.90
23102;DHT22;11720;51.214;22.574;2023-03-01T08:35:51;1.70;99.90
23102;DHT22;11720;51.214;22.574;2023-03-01T08:38:17;1.90;99.90
23102;DHT22;11720;51.214;22.574;2023-03-01T08:40:43;1.90;99.90
23102;DHT22;11720;51.214;22.574;2023-03-01T08:43:08;1.90;99.90
23102;DHT22;11720;51.214;22.574;2023-03-01T08:45:34;2.10;99.90
23102;DHT22;11720;51.214;22.574;2023-03-01T08:47:59;2.00;99.90
23102;DHT22;11720;51.214;22.574;2023-03-01T08:50:25;2.10;99.90
23102;DHT22;11720;51.214;22.574;2023-03-01T08:52:51;2.30;99.90
23102;DHT22;11720;51.214;22.574;2023-03-01T08:55:16;2.40;99.90
23102;DHT22;11720;51.214;22.574;2023-03-01T08:57:43;2.40;99.90
23102;DHT22;11720;51.214;22.574;2023-03-01T09:00:10;2.50;99.90
23102;DHT22;11720;51.214;22.574;2023-03-01T09:02:37;2.50;99.90
23102;DHT22;11720;51.214;22.574;2023-03-01T09:05:03;2.60;99.90
23102;DHT22;11720;51.214;22.574;2023-03-01T09:07:29;2.70;99.90
23102;DHT22;11720;51.214;22.574;2023-03-01T09:09:54;2.70;99.90
23102;DHT22;11720;51.214;22.574;2023-03-01T09:12:21;2.80;99.90
23102;DHT22;11720;51.214;22.574;2023-03-01T09:14:46;2.80;99.90
23102;DHT22;11720;51.214;22.574;2023-03-01T09:17:12;2.70;99.90
23102;DHT22;11720;51.214;22.574;2023-03-01T09:19:38;2.70;99.90
23102;DHT22;11720;51.214;22.574;2023-03-01T09:22:04;2.80;99.90
23102;DHT22;11720;51.214;22.574;2023-03-01T09:24:30;3.00;99.90
23102;DHT22;11720;51.214;22.574;2023-03-01T09:26:56;3.10;99.90
23102;DHT22;11720;51.214;22.574;2023-03-01T09:29:22;3.20;99.90
23102;DHT22;11720;51.214;22.574;2023-03-01T09:31:48;3.30;99.90
23102;DHT22;11720;51.214;22.574;2023-03-01T09:34:14;3.20;99.90
23102;DHT22;11720;51.214;22.574;2023-03-01T09:36:48;3.20;99.90
23102;DHT22;11720;51.214;22.574;2023-03-01T09:39:14;3.40;99.90
23102;DHT22;11720;51.214;22.574;2023-03-01T09:41:54;3.40;99.90
23102;DHT22;11720;51.214;22.574;2023-03-01T09:44:42;3.40;99.50
23102;DHT22;11720;51.214;22.574;2023-03-01T09:47:15;3.60;99.20
23102;DHT22;11720;51.214;22.574;2023-03-01T09:49:43;3.60;97.40
23102;DHT22;11720;51.214;22.574;2023-03-01T09:55:13;3.50;97.60
23102;DHT22;11720;51.214;22.574;2023-03-01T09:58:00;3.70;97.80
23102;DHT22;11720;51.214;22.574;2023-03-01T10:00:47;3.80;96.60
23102;DHT22;11720;51.214;22.574;2023-03-01T10:06:14;4.00;93.50
23102;DHT22;11720;51.214;22.574;2023-03-01T10:08:55;4.00;93.00
23102;DHT22;11720;51.214;22.574;2023-03-01T10:11:31;4.10;93.40
23102;DHT22;11720;51.214;22.574;2023-03-01T10:13:59;4.20;93.80
23102;DHT22;11720;51.214;22.574;2023-03-01T10:19:01;4.30;90.00
23102;DHT22;11720;51.214;22.574;2023-03-01T10:21:28;4.20;90.50
23102;DHT22;11720;51.214;22.574;2023-03-01T10:24:07;4.20;90.00
23102;DHT22;11720;51.214;22.574;2023-03-01T10:26:38;4.10;90.50
23102;DHT22;11720;51.214;22.574;2023-03-01T10:29:10;4.20;90.10
23102;DHT22;11720;51.214;22.574;2023-03-01T10:31:45;4.20;91.10
23102;DHT22;11720;51.214;22.574;2023-03-01T10:34:18;4.50;91.10
23102;DHT22;11720;51.214;22.574;2023-03-01T10:36:48;4.70;92.00
23102;DHT22;11720;51.214;22.574;2023-03-01T10:39:25;4.80;91.10
23102;DHT22;11720;51.214;22.574;2023-03-01T10:42:07;4.90;91.10
23102;DHT22;11720;51.214;22.574;2023-03-01T10:44:48;4.90;90.90
23102;DHT22;11720;51.214;22.574;2023-03-01T10:47:27;5.00;90.50
23102;DHT22;11720;51.214;22.574;2023-03-01T10:50:04;5.00;90.50
23102;DHT22;11720;51.214;22.574;2023-03-01T10:52:40;4.90;90.90
23102;DHT22;11720;51.214;22.574;2023-03-01T10:57:41;5.20;90.10
23102;DHT22;11720;51.214;22.574;2023-03-01T11:00:26;5.30;90.50
23102;DHT22;11720;51.214;22.574;2023-03-01T11:03:12;5.30;90.10
23102;DHT22;11720;51.214;22.574;2023-03-01T11:05:54;5.30;90.30
23102;DHT22;11720;51.214;22.574;2023-03-01T11:08:38;5.50;90.30
23102;DHT22;11720;51.214;22.574;2023-03-01T11:11:17;5.60;88.30
23102;DHT22;11720;51.214;22.574;2023-03-01T11:13:56;5.60;86.30
23102;DHT22;11720;51.214;22.574;2023-03-01T11:16:46;5.50;87.90
23102;DHT22;11720;51.214;22.574;2023-03-01T11:21:50;5.50;84.80
23102;DHT22;11720;51.214;22.574;2023-03-01T11:24:17;5.60;86.10
23102;DHT22;11720;51.214;22.574;2023-03-01T11:26:50;5.70;85.10
23102;DHT22;11720;51.214;22.574;2023-03-01T11:29:32;5.80;83.30
23102;DHT22;11720;51.214;22.574;2023-03-01T11:32:02;5.80;83.10
23102;DHT22;11720;51.214;22.574;2023-03-01T11:40:16;6.00;81.90
23102;DHT22;11720;51.214;22.574;2023-03-01T11:49:02;6.00;81.10
23102;DHT22;11720;51.214;22.574;2023-03-01T11:55:35;6.30;80.90
23102;DHT22;11720;51.214;22.574;2023-03-01T12:03:49;6.10;84.30
23102;DHT22;11720;51.214;22.574;2023-03-01T12:32:07;6.30;84.10
23102;DHT22;11720;51.214;22.574;2023-03-01T12:48:14;7.10;81.60
23102;DHT22;11720;51.214;22.574;2023-03-01T12:50:48;7.20;81.40
23102;DHT22;11720;51.214;22.574;2023-03-01T12:53:23;6.80;81.80
23102;DHT22;11720;51.214;22.574;2023-03-01T12:55:51;6.60;83.00
23102;DHT22;11720;51.214;22.574;2023-03-01T12:58:41;6.80;84.30
23102;DHT22;11720;51.214;22.574;2023-03-01T13:17:59;7.80;80.40
23102;DHT22;11720;51.214;22.574;2023-03-01T13:20:51;7.90;78.70
23102;DHT22;11720;51.214;22.574;2023-03-01T13:26:09;7.30;77.90
23102;DHT22;11720;51.214;22.574;2023-03-01T13:37:16;7.70;80.20
23102;DHT22;11720;51.214;22.574;2023-03-01T13:39:44;8.00;77.70
23102;DHT22;11720;51.214;22.574;2023-03-01T13:44:57;8.00;79.60
23102;DHT22;11720;51.214;22.574;2023-03-01T13:47:23;8.60;77.80
23102;DHT22;11720;51.214;22.574;2023-03-01T13:50:01;8.80;75.50
23102;DHT22;11720;51.214;22.574;2023-03-01T13:52:43;9.30;74.90
23102;DHT22;11720;51.214;22.574;2023-03-01T13:58:03;9.40;73.50
23102;DHT22;11720;51.214;22.574;2023-03-01T14:00:32;8.80;72.90
23102;DHT22;11720;51.214;22.574;2023-03-01T14:03:10;8.70;73.70
23102;DHT22;11720;51.214;22.574;2023-03-01T14:05:37;9.10;72.20
23102;DHT22;11720;51.214;22.574;2023-03-01T14:08:04;8.70;73.60
23102;DHT22;11720;51.214;22.574;2023-03-01T14:10:39;8.60;73.00
23102;DHT22;11720;51.214;22.574;2023-03-01T14:13:20;8.40;73.10
23102;DHT22;11720;51.214;22.574;2023-03-01T14:18:58;7.40;77.60
23102;DHT22;11720;51.214;22.574;2023-03-01T14:21:26;7.30;78.30
23102;DHT22;11720;51.214;22.574;2023-03-01T14:23:52;7.30;78.70
23102;DHT22;11720;51.214;22.574;2023-03-01T14:26:22;7.50;78.30
23102;DHT22;11720;51.214;22.574;2023-03-01T14:28:49;7.60;76.20
23102;DHT22;11720;51.214;22.574;2023-03-01T14:31:38;7.60;75.90
23102;DHT22;11720;51.214;22.574;2023-03-01T14:34:04;7.40;77.20
23102;DHT22;11720;51.214;22.574;2023-03-01T14:36:33;7.50;76.50
23102;DHT22;11720;51.214;22.574;2023-03-01T14:39:00;7.40;78.00
23102;DHT22;11720;51.214;22.574;2023-03-01T14:41:33;7.40;80.20
23102;DHT22;11720;51.214;22.574;2023-03-01T14:44:03;7.30;78.40
23102;DHT22;11720;51.214;22.574;2023-03-01T14:46:31;7.20;78.40
23102;DHT22;11720;51.214;22.574;2023-03-01T14:49:04;6.90;79.50
23102;DHT22;11720;51.214;22.574;2023-03-01T14:51:34;6.90;80.70
23102;DHT22;11720;51.214;22.574;2023-03-01T14:54:00;6.80;81.50
23102;DHT22;11720;51.214;22.574;2023-03-01T14:56:26;6.70;82.10
23102;DHT22;11720;51.214;22.574;2023-03-01T14:58:53;6.60;82.90
23102;DHT22;11720;51.214;22.574;2023-03-01T15:01:23;6.60;83.10
23102;DHT22;11720;51.214;22.574;2023-03-01T15:03:49;6.40;83.80
23102;DHT22;11720;51.214;22.574;2023-03-01T15:06:19;6.40;83.60
23102;DHT22;11720;51.214;22.574;2023-03-01T15:08:49;6.30;84.50
23102;DHT22;11720;51.214;22.574;2023-03-01T15:11:34;6.20;84.40
23102;DHT22;11720;51.214;22.574;2023-03-01T15:14:26;6.20;84.00
23102;DHT22;11720;51.214;22.574;2023-03-01T15:16:52;6.20;85.40
23102;DHT22;11720;51.214;22.574;2023-03-01T15:19:18;6.10;85.50
23102;DHT22;11720;51.214;22.574;2023-03-01T15:21:47;6.00;86.30
23102;DHT22;11720;51.214;22.574;2023-03-01T15:24:17;6.00;85.80
23102;DHT22;11720;51.214;22.574;2023-03-01T15:26:51;5.90;85.80
23102;DHT22;11720;51.214;22.574;2023-03-01T15:29:22;5.80;86.20
23102;DHT22;11720;51.214;22.574;2023-03-01T15:32:05;5.70;86.90
23102;DHT22;11720;51.214;22.574;2023-03-01T15:34:35;5.70;88.00
23102;DHT22;11720;51.214;22.574;2023-03-01T15:39:59;5.60;88.00
23102;DHT22;11720;51.214;22.574;2023-03-01T15:45:20;5.40;89.70
23102;DHT22;11720;51.214;22.574;2023-03-01T15:47:48;5.30;89.90
23102;DHT22;11720;51.214;22.574;2023-03-01T15:50:41;5.30;90.40
23102;DHT22;11720;51.214;22.574;2023-03-01T15:53:13;5.20;90.50
23102;DHT22;11720;51.214;22.574;2023-03-01T15:55:40;5.10;91.00
23102;DHT22;11720;51.214;22.574;2023-03-01T15:58:10;5.00;91.40
23102;DHT22;11720;51.214;22.574;2023-03-01T16:00:37;5.00;91.50
23102;DHT22;11720;51.214;22.574;2023-03-01T16:03:05;5.00;91.40
23102;DHT22;11720;51.214;22.574;2023-03-01T16:05:32;4.90;91.90
23102;DHT22;11720;51.214;22.574;2023-03-01T16:07:58;4.90;92.40
23102;DHT22;11720;51.214;22.574;2023-03-01T16:10:24;4.80;93.20
23102;DHT22;11720;51.214;22.574;2023-03-01T16:12:51;4.70;93.70
23102;DHT22;11720;51.214;22.574;2023-03-01T16:15:30;4.60;93.40
23102;DHT22;11720;51.214;22.574;2023-03-01T16:17:56;4.50;93.60
23102;DHT22;11720;51.214;22.574;2023-03-01T16:20:24;4.50;94.30
23102;DHT22;11720;51.214;22.574;2023-03-01T16:22:51;4.40;95.80
23102;DHT22;11720;51.214;22.574;2023-03-01T16:25:18;4.40;96.00
23102;DHT22;11720;51.214;22.574;2023-03-01T16:27:46;4.30;96.90
23102;DHT22;11720;51.214;22.574;2023-03-01T16:30:13;4.20;97.50
23102;DHT22;11720;51.214;22.574;2023-03-01T16:32:44;4.10;98.20
23102;DHT22;11720;51.214;22.574;2023-03-01T16:35:13;4.00;99.00
23102;DHT22;11720;51.214;22.574;2023-03-01T16:37:40;3.90;99.90
23102;DHT22;11720;51.214;22.574;2023-03-01T16:40:11;3.80;99.90
23102;DHT22;11720;51.214;22.574;2023-03-01T16:42:41;3.70;99.90
23102;DHT22;11720;51.214;22.574;2023-03-01T16:45:08;3.60;99.90
23102;DHT22;11720;51.214;22.574;2023-03-01T16:47:34;3.40;99.90
23102;DHT22;11720;51.214;22.574;2023-03-01T16:50:00;3.20;99.90
23102;DHT22;11720;51.214;22.574;2023-03-01T16:52:26;3.10;99.90
23102;DHT22;11720;51.214;22.574;2023-03-01T16:54:51;3.10;99.90
23102;DHT22;11720;51.214;22.574;2023-03-01T16:57:18;3.00;99.90
23102;DHT22;11720;51.214;22.574;2023-03-01T16:59:44;3.00;99.90
23102;DHT22;11720;51.214;22.574;2023-03-01T17:02:13;2.80;99.90
23102;DHT22;11720;51.214;22.574;2023-03-01T17:04:44;2.70;99.90
23102;DHT22;11720;51.214;22.574;2023-03-01T17:07:10;2.60;99.90
23102;DHT22;11720;51.214;22.574;2023-03-01T17:09:37;2.50;99.90
23102;DHT22;11720;51.214;22.574;2023-03-01T17:12:06;2.40;99.90
23102;DHT22;11720;51.214;22.574;2023-03-01T17:14:31;2.30;99.90
23102;DHT22;11720;51.214;22.574;2023-03-01T17:19:23;2.40;99.90
23102;DHT22;11720;51.214;22.574;2023-03-01T17:31:34;2.70;99.90
23102;DHT22;11720;51.214;22.574;2023-03-01T17:43:46;2.50;99.90
23102;DHT22;11720;51.214;22.574;2023-03-01T17:48:38;2.40;99.90
23102;DHT22;11720;51.214;22.574;2023-03-01T17:51:08;2.30;99.90
23102;DHT22;11720;51.214;22.574;2023-03-01T17:53:34;2.30;99.90
23102;DHT22;11720;51.214;22.574;2023-03-01T17:56:02;2.20;99.90
23102;DHT22;11720;51.214;22.574;2023-03-01T17:58:28;2.20;99.90
23102;DHT22;11720;51.214;22.574;2023-03-01T18:00:54;2.20;99.90
23102;DHT22;11720;51.214;22.574;2023-03-01T18:03:20;2.20;99.90
23102;DHT22;11720;51.214;22.574;2023-03-01T18:08:12;2.10;99.90
23102;DHT22;11720;51.214;22.574;2023-03-01T18:10:38;2.10;99.90
23102;DHT22;11720;51.214;22.574;2023-03-01T18:13:04;2.10;99.90
23102;DHT22;11720;51.214;22.574;2023-03-01T18:15:31;2.00;99.90
23102;DHT22;11720;51.214;22.574;2023-03-01T18:17:56;2.10;99.90
23102;DHT22;11720;51.214;22.574;2023-03-01T18:20:22;2.00;99.90